Observation data for Snyder on 11/19/2019      Previous  Date       Current Mesonet Observations  Soil Data  Daily Summary Page  Observations in Plain Language
KSYS 190600Z 12005KT 13/03 A2996 RMK A01 T01270025  RH  051%=      5-min Rain = 0
KSYS 190605Z 12005KT 13/03 A2996 RMK A01 T01260026  RH  051%=      5-min Rain = 0
KSYS 190610Z 12005KT 12/03 A2996 RMK A01 T01240025  RH  052%=      5-min Rain = 0
KSYS 190615Z 12005KT 12/03 A2996 RMK A01 T01210025  RH  052%=      5-min Rain = 0
KSYS 190620Z 12005KT 12/02 A2996 RMK A01 T01200024  RH  053%=      5-min Rain = 0
KSYS 190625Z 12005KT 12/02 A2996 RMK A01 T01190024  RH  053%=      5-min Rain = 0
KSYS 190630Z 11005KT 12/02 A2996 RMK A01 T01190024  RH  053%=      5-min Rain = 0
KSYS 190635Z 12005KT 12/02 A2995 RMK A01 T01190024  RH  053%=      5-min Rain = 0
KSYS 190640Z 13006KT 12/02 A2995 RMK A01 T01190024  RH  053%=      5-min Rain = 0
KSYS 190645Z 13006KT 12/02 A2995 RMK A01 T01200024  RH  053%=      5-min Rain = 0
KSYS 190650Z 13006KT 12/03 A2995 RMK A01 T01190025  RH  053%=      5-min Rain = 0
KSYS 190655Z 14006KT 12/03 A2995 RMK A01 T01170025  RH  054%=      5-min Rain = 0
KSYS 190700Z 14006KT 12/03 A2995 RMK A01 T01170025  RH  054%=      5-min Rain = 0
KSYS 190705Z 14006KT 12/03 A2995 RMK A01 T01160025  RH  054%=      5-min Rain = 0
KSYS 190710Z 15006KT 12/03 A2995 RMK A01 T01160025  RH  054%=      5-min Rain = 0
KSYS 190715Z 14006KT 12/03 A2995 RMK A01 T01160025  RH  054%=      5-min Rain = 0
KSYS 190720Z 14006KT 12/03 A2995 RMK A01 T01150025  RH  055%=      5-min Rain = 0
KSYS 190725Z 14006KT 11/03 A2995 RMK A01 T01140025  RH  055%=      5-min Rain = 0
KSYS 190730Z 15007KT 11/03 A2995 RMK A01 T01140025  RH  055%=      5-min Rain = 0
KSYS 190735Z 16007KT 12/03 A2996 RMK A01 T01150026  RH  055%=      5-min Rain = 0
KSYS 190740Z 16007KT 12/03 A2995 RMK A01 T01160025  RH  055%=      5-min Rain = 0
KSYS 190745Z 16007KT 12/03 A2995 RMK A01 T01160025  RH  055%=      5-min Rain = 0
KSYS 190750Z 16007KT 12/03 A2996 RMK A01 T01150026  RH  055%=      5-min Rain = 0
KSYS 190755Z 16007KT 11/03 A2995 RMK A01 T01140026  RH  056%=      5-min Rain = 0
KSYS 190800Z 15006KT 11/03 A2996 RMK A01 T01120026  RH  056%=      5-min Rain = 0
KSYS 190805Z 15006KT 11/03 A2996 RMK A01 T01110026  RH  057%=      5-min Rain = 0
KSYS 190810Z 16005KT 11/03 A2996 RMK A01 T01100025  RH  057%=      5-min Rain = 0
KSYS 190815Z 16006KT 11/03 A2996 RMK A01 T01080025  RH  058%=      5-min Rain = 0
KSYS 190820Z 17006KT 11/03 A2996 RMK A01 T01050026  RH  059%=      5-min Rain = 0
KSYS 190825Z 19006KT 10/03 A2996 RMK A01 T01040026  RH  059%=      5-min Rain = 0
KSYS 190830Z 18006KT 10/03 ANAN RMK A01 T01020026  RH  060%=      5-min Rain = 0
KSYS 190835Z 18006KT 10/03 A2996 RMK A01 T01010026  RH  061%=      5-min Rain = 0
KSYS 190840Z 18006KT 10/03 A2996 RMK A01 T00990026  RH  061%=      5-min Rain = 0
KSYS 190845Z 19006KT 10/03 A2997 RMK A01 T00980026  RH  062%=      5-min Rain = 0
KSYS 190850Z 19006KT 10/03 A2997 RMK A01 T00970026  RH  062%=      5-min Rain = 0
KSYS 190855Z 19006KT 10/03 A2997 RMK A01 T00960027  RH  063%=      5-min Rain = 0
KSYS 190900Z 19006KT 10/03 A2997 RMK A01 T00950027  RH  063%=      5-min Rain = 0
KSYS 190905Z 19006KT 09/03 A2997 RMK A01 T00930027  RH  064%=      5-min Rain = 0
KSYS 190910Z 19006KT 09/03 A2997 RMK A01 T00910028  RH  066%=      5-min Rain = 0
KSYS 190915Z 18006KT 09/03 A2997 RMK A01 T00910028  RH  066%=      5-min Rain = 0
KSYS 190920Z 18006KT 09/03 A2996 RMK A01 T00900027  RH  066%=      5-min Rain = 0
KSYS 190925Z 18006KT 09/03 A2996 RMK A01 T00880026  RH  066%=      5-min Rain = 0
KSYS 190930Z 17006KT 09/03 A2996 RMK A01 T00860026  RH  067%=      5-min Rain = 0
KSYS 190935Z 17006KT 09/03 A2996 RMK A01 T00850026  RH  067%=      5-min Rain = 0
KSYS 190940Z 17006KT 09/03 A2996 RMK A01 T00850026  RH  068%=      5-min Rain = 0
KSYS 190945Z 17006KT 08/03 A2996 RMK A01 T00840026  RH  068%=      5-min Rain = 0
KSYS 190950Z 17005KT 08/03 A2996 RMK A01 T00830026  RH  069%=      5-min Rain = 0
KSYS 190955Z 17005KT 08/03 A2996 RMK A01 T00820026  RH  069%=      5-min Rain = 0
KSYS 191000Z 17005KT 08/03 A2996 RMK A01 T00810026  RH  069%=      5-min Rain = 0
KSYS 191005Z 16006KT 08/03 A2996 RMK A01 T00800026  RH  070%=      5-min Rain = 0
KSYS 191010Z 16006KT 08/03 A2995 RMK A01 T00780026  RH  071%=      5-min Rain = 0
KSYS 191015Z 16006KT 08/03 A2995 RMK A01 T00770026  RH  071%=      5-min Rain = 0
KSYS 191020Z 17007KT 08/03 A2995 RMK A01 T00760026  RH  072%=      5-min Rain = 0
KSYS 191025Z 16006KT 08/03 A2995 RMK A01 T00780027  RH  072%=      5-min Rain = 0
KSYS 191030Z 16006KT 08/03 A2995 RMK A01 T00780027  RH  071%=      5-min Rain = 0
KSYS 191035Z 17006KT 08/03 A2995 RMK A01 T00780027  RH  072%=      5-min Rain = 0
KSYS 191040Z 17005KT 08/03 A2995 RMK A01 T00790027  RH  071%=      5-min Rain = 0
KSYS 191045Z 17006KT 08/03 A2995 RMK A01 T00800027  RH  071%=      5-min Rain = 0
KSYS 191050Z 16006KT 08/03 A2995 RMK A01 T00800027  RH  071%=      5-min Rain = 0
KSYS 191055Z 16006KT 08/03 A2995 RMK A01 T00790027  RH  071%=      5-min Rain = 0
KSYS 191100Z 16007KT 08/03 A2995 RMK A01 T00780027  RH  071%=      5-min Rain = 0
KSYS 191105Z 16006KT 08/03 A2995 RMK A01 T00770027  RH  072%=      5-min Rain = 0
KSYS 191110Z 16006KT 08/03 A2995 RMK A01 T00760027  RH  072%=      5-min Rain = 0
KSYS 191115Z 17007KT 08/03 A2995 RMK A01 T00760027  RH  072%=      5-min Rain = 0
KSYS 191120Z 16007KT 08/03 A2995 RMK A01 T00750026  RH  072%=      5-min Rain = 0
KSYS 191125Z 16006KT 07/03 A2995 RMK A01 T00740026  RH  073%=      5-min Rain = 0
KSYS 191130Z 16006KT 07/03 A2995 RMK A01 T00730026  RH  073%=      5-min Rain = 0
KSYS 191135Z 16006KT 07/03 A2995 RMK A01 T00730026  RH  073%=      5-min Rain = 0
KSYS 191140Z 16007KT 07/03 A2995 RMK A01 T00730026  RH  073%=      5-min Rain = 0
KSYS 191145Z 17007KT 07/03 A2995 RMK A01 T00720026  RH  074%=      5-min Rain = 0
KSYS 191150Z 17007KT 07/03 A2995 RMK A01 T00720026  RH  074%=      5-min Rain = 0
KSYS 191155Z 17007KT 07/03 A2995 RMK A01 T00720026  RH  074%=      5-min Rain = 0
KSYS 191200Z 17006KT 07/03 A2995 RMK A01 T00720026  RH  074%=      5-min Rain = 0
KSYS 191205Z 17006KT 07/03 A2995 RMK A01 T00720026  RH  074%=      5-min Rain = 0
KSYS 191210Z 17006KT 07/03 A2995 RMK A01 T00720026  RH  074%=      5-min Rain = 0
KSYS 191215Z 18006KT 07/03 A2995 RMK A01 T00720026  RH  074%=      5-min Rain = 0
KSYS 191220Z 18005KT 07/03 A2996 RMK A01 T00720026  RH  074%=      5-min Rain = 0
KSYS 191225Z 17006KT 07/03 A2996 RMK A01 T00730026  RH  074%=      5-min Rain = 0
KSYS 191230Z 18005KT 07/03 A2996 RMK A01 T00730027  RH  074%=      5-min Rain = 0
KSYS 191235Z 18005KT 07/03 A2996 RMK A01 T00740027  RH  073%=      5-min Rain = 0
KSYS 191240Z 19005KT 08/03 A2996 RMK A01 T00750027  RH  073%=      5-min Rain = 0
KSYS 191245Z 19005KT 08/03 A2997 RMK A01 T00750028  RH  073%=      5-min Rain = 0
KSYS 191250Z 19005KT 08/03 A2997 RMK A01 T00750028  RH  073%=      5-min Rain = 0
KSYS 191255Z 19005KT 07/03 A2997 RMK A01 T00740028  RH  073%=      5-min Rain = 0
KSYS 191300Z 19004KT 07/03 A2997 RMK A01 T00740027  RH  074%=      5-min Rain = 0
KSYS 191305Z 21005KT 07/03 A2997 RMK A01 T00730027  RH  074%=      5-min Rain = 0
KSYS 191310Z 21005KT 07/03 A2997 RMK A01 T00730028  RH  074%=      5-min Rain = 0
KSYS 191315Z 21005KT 07/03 A2997 RMK A01 T00740027  RH  074%=      5-min Rain = 0
KSYS 191320Z 21005KT 07/03 A2997 RMK A01 T00730027  RH  074%=      5-min Rain = 0
KSYS 191325Z 21005KT 07/03 A2998 RMK A01 T00730027  RH  074%=      5-min Rain = 0
KSYS 191330Z 21005KT 07/03 A2998 RMK A01 T00730028  RH  074%=      5-min Rain = 0
KSYS 191335Z 21005KT 07/03 A2998 RMK A01 T00730028  RH  074%=      5-min Rain = 0
KSYS 191340Z 21005KT 08/03 A2998 RMK A01 T00750028  RH  074%=      5-min Rain = 0
KSYS 191345Z 21004KT 08/03 A2998 RMK A01 T00750029  RH  073%=      5-min Rain = 0
KSYS 191350Z 21004KT 08/03 A2998 RMK A01 T00770029  RH  073%=      5-min Rain = 0
KSYS 191355Z 20004KT 08/03 A2998 RMK A01 T00800031  RH  072%=      5-min Rain = 0
KSYS 191400Z 19005KT 09/03 A2998 RMK A01 T00850032  RH  071%=      5-min Rain = 0
KSYS 191405Z 19004KT 09/03 A2998 RMK A01 T00880034  RH  070%=      5-min Rain = 0
KSYS 191410Z 19004KT 09/04 A2998 RMK A01 T00900035  RH  070%=      5-min Rain = 0
KSYS 191415Z 19004KT 09/04 A2998 RMK A01 T00920037  RH  070%=      5-min Rain = 0
KSYS 191420Z 18004KT 10/04 A2998 RMK A01 T00950038  RH  069%=      5-min Rain = 0
KSYS 191425Z 18004KT 10/04 A2998 RMK A01 T00960038  RH  069%=      5-min Rain = 0
KSYS 191430Z 18004KT 10/04 A2998 RMK A01 T00980040  RH  069%=      5-min Rain = 0
KSYS 191435Z 17004KT 10/04 A2998 RMK A01 T01000044  RH  070%=      5-min Rain = 0
KSYS 191440Z 17004KT 10/05 A2998 RMK A01 T01030045  RH  069%=      5-min Rain = 0
KSYS 191445Z 17005KT 11/05 A2998 RMK A01 T01070046  RH  068%=      5-min Rain = 0
KSYS 191450Z 18005KT 11/05 A2998 RMK A01 T01110045  RH  065%=      5-min Rain = 0
KSYS 191455Z 18005KT 12/05 A2998 RMK A01 T01150045  RH  064%=      5-min Rain = 0
KSYS 191500Z 19005KT 12/05 A2998 RMK A01 T01170046  RH  063%=      5-min Rain = 0
KSYS 191505Z 19006KT 12/05 A2998 RMK A01 T01180046  RH  062%=      5-min Rain = 0
KSYS 191510Z 19005KT 12/05 A2998 RMK A01 T01160047  RH  064%=      5-min Rain = 0
KSYS 191515Z 19005KT 12/05 A2998 RMK A01 T01190049  RH  063%=      5-min Rain = 0
KSYS 191520Z 19006KT 13/05 A2998 RMK A01 T01260051  RH  061%=      5-min Rain = 0
KSYS 191525Z 18007KT 13/05 A2998 RMK A01 T01330052  RH  059%=      5-min Rain = 0
KSYS 191530Z 18007KT 14/05 A2998 RMK A01 T01380054  RH  058%=      5-min Rain = 0
KSYS 191535Z 19009KT 14/06 A2998 RMK A01 T01420055  RH  057%=      5-min Rain = 0
KSYS 191540Z 19009KT 14/06 A2998 RMK A01 T01440055  RH  056%=      5-min Rain = 0
KSYS 191545Z 18008KT 15/06 A2998 RMK A01 T01480058  RH  056%=      5-min Rain = 0
KSYS 191550Z 18009KT 15/06 A2998 RMK A01 T01510059  RH  055%=      5-min Rain = 0
KSYS 191555Z 19009G14KT 16/06 A2998 RMK A01 T01550060  RH  055%=      5-min Rain = 0
KSYS 191600Z 19009KT 16/06 A2998 RMK A01 T01580062  RH  054%=      5-min Rain = 0
KSYS 191605Z 20010KT 16/06 A2998 RMK A01 T01610063  RH  053%=      5-min Rain = 0
KSYS 191610Z 19009KT 16/06 A2998 RMK A01 T01630063  RH  053%=      5-min Rain = 0
KSYS 191615Z 20010KT 17/06 A2998 RMK A01 T01670064  RH  052%=      5-min Rain = 0
KSYS 191620Z 19010G15KT 17/07 A2998 RMK A01 T01700065  RH  051%=      5-min Rain = 0
KSYS 191625Z 19011KT 17/07 A2998 RMK A01 T01740065  RH  050%=      5-min Rain = 0
KSYS 191630Z 19011KT 18/07 A2998 RMK A01 T01750066  RH  050%=      5-min Rain = 0
KSYS 191635Z 20009KT 18/07 A2998 RMK A01 T01790067  RH  049%=      5-min Rain = 0
KSYS 191640Z 20010KT 18/07 A2998 RMK A01 T01820066  RH  048%=      5-min Rain = 0
KSYS 191645Z 20009KT 18/07 A2998 RMK A01 T01810067  RH  048%=      5-min Rain = 0
KSYS 191650Z 20009KT 18/07 A2998 RMK A01 T01830067  RH  048%=      5-min Rain = 0
KSYS 191655Z 19008KT 19/07 A2998 RMK A01 T01870068  RH  047%=      5-min Rain = 0
KSYS 191700Z 19009KT 19/07 A2997 RMK A01 T01890069  RH  047%=      5-min Rain = 0
KSYS 191705Z 21008G15KT 19/07 A2997 RMK A01 T01910070  RH  046%=      5-min Rain = 0
KSYS 191710Z 20011KT 19/07 A2997 RMK A01 T01920069  RH  046%=      5-min Rain = 0
KSYS 191715Z 20009KT 19/07 A2997 RMK A01 T01940070  RH  046%=      5-min Rain = 0
KSYS 191720Z 19011KT 20/07 A2997 RMK A01 T01960070  RH  045%=      5-min Rain = 0
KSYS 191725Z 19009KT 20/07 A2996 RMK A01 T01990071  RH  044%=      5-min Rain = 0
KSYS 191730Z 18008KT 20/07 A2996 RMK A01 T02020070  RH  044%=      5-min Rain = 0
KSYS 191735Z 20009KT 20/07 A2996 RMK A01 T02040070  RH  043%=      5-min Rain = 0
KSYS 191740Z 18008KT 20/07 A2995 RMK A01 T02040070  RH  043%=      5-min Rain = 0
KSYS 191745Z 19007KT 21/07 A2995 RMK A01 T02090070  RH  042%=      5-min Rain = 0
KSYS 191750Z 19008KT 21/07 A2995 RMK A01 T02120069  RH  041%=      5-min Rain = 0
KSYS 191755Z 18011KT 21/07 A2994 RMK A01 T02130068  RH  040%=      5-min Rain = 0
KSYS 191800Z 18009KT 21/07 A2994 RMK A01 T02130069  RH  040%=      5-min Rain = 0
KSYS 191805Z 19009KT 22/07 A2994 RMK A01 T02190069  RH  039%=      5-min Rain = 0
KSYS 191810Z 18009KT 22/07 A2993 RMK A01 T02200069  RH  039%=      5-min Rain = 0
KSYS 191815Z 19008KT 22/07 A2993 RMK A01 T02230070  RH  038%=      5-min Rain = 0
KSYS 191820Z 19010G15KT 23/07 A2993 RMK A01 T02280069  RH  037%=      5-min Rain = 0
KSYS 191825Z 19010G15KT 23/07 A2992 RMK A01 T02300068  RH  036%=      5-min Rain = 0
KSYS 191830Z 19011KT 23/07 A2992 RMK A01 T02310068  RH  036%=      5-min Rain = 0
KSYS 191835Z 17011G18KT 23/07 A2992 RMK A01 T02330067  RH  035%=      5-min Rain = 0
KSYS 191840Z 17012G18KT 24/07 A2991 RMK A01 T02350067  RH  035%=      5-min Rain = 0
KSYS 191845Z 17014G19KT 24/07 A2991 RMK A01 T02360065  RH  034%=      5-min Rain = 0
KSYS 191850Z 17013G18KT 24/07 A2991 RMK A01 T02370066  RH  034%=      5-min Rain = 0
KSYS 191855Z 17011G16KT 24/07 A2991 RMK A01 T02400066  RH  033%=      5-min Rain = 0
KSYS 191900Z 17012KT 25/07 A299 RMK A01 T02450065  RH  032%=      5-min Rain = 0
KSYS 191905Z 17014G20KT 25/06 A299 RMK A01 T02460063  RH  032%=      5-min Rain = 0
KSYS 191910Z 18015G20KT 25/06 A2989 RMK A01 T02490058  RH  030%=      5-min Rain = 0
KSYS 191915Z 17014KT 25/06 A2989 RMK A01 T02520059  RH  030%=      5-min Rain = 0
KSYS 191920Z 17014KT 25/06 A2989 RMK A01 T02540058  RH  029%=      5-min Rain = 0
KSYS 191925Z 19014G20KT 26/05 A2988 RMK A01 T02560052  RH  028%=      5-min Rain = 0
KSYS 191930Z 19016G23KT 25/05 A2988 RMK A01 T02520047  RH  027%=      5-min Rain = 0
KSYS 191935Z 19013G18KT 25/05 A2988 RMK A01 T02530048  RH  027%=      5-min Rain = 0
KSYS 191940Z 19014G19KT 25/05 A2988 RMK A01 T02540049  RH  027%=      5-min Rain = 0
KSYS 191945Z 18012G17KT 26/05 A2988 RMK A01 T02560051  RH  027%=      5-min Rain = 0
KSYS 191950Z 18014G21KT 26/05 A2987 RMK A01 T02580046  RH  026%=      5-min Rain = 0
KSYS 191955Z 18016G21KT 26/04 A2987 RMK A01 T02580043  RH  026%=      5-min Rain = 0
KSYS 192000Z 19014G21KT 26/04 A2987 RMK A01 T02590044  RH  026%=      5-min Rain = 0
KSYS 192005Z 19013KT 26/05 A2986 RMK A01 T02600045  RH  026%=      5-min Rain = 0
KSYS 192010Z 19015G21KT 26/04 A2986 RMK A01 T02600042  RH  025%=      5-min Rain = 0
KSYS 192015Z 18015G21KT 26/04 A2986 RMK A01 T02590040  RH  025%=      5-min Rain = 0
KSYS 192020Z 18015G20KT 26/04 A2985 RMK A01 T02590042  RH  025%=      5-min Rain = 0
KSYS 192025Z 18013G20KT 26/05 A2985 RMK A01 T02610048  RH  026%=      5-min Rain = 0
KSYS 192030Z 18015G22KT 26/05 A2985 RMK A01 T02610049  RH  026%=      5-min Rain = 0
KSYS 192035Z 18012G18KT 26/05 A2985 RMK A01 T02630047  RH  025%=      5-min Rain = 0
KSYS 192040Z 18014G19KT 26/05 A2985 RMK A01 T02630046  RH  025%=      5-min Rain = 0
KSYS 192045Z 19014KT 26/04 A2985 RMK A01 T02620043  RH  025%=      5-min Rain = 0
KSYS 192050Z 19013KT 26/04 A2984 RMK A01 T02620042  RH  025%=      5-min Rain = 0
KSYS 192055Z 18011G16KT 26/04 A2984 RMK A01 T02630044  RH  025%=      5-min Rain = 0
KSYS 192100Z 18012G17KT 27/04 A2984 RMK A01 T02660042  RH  024%=      5-min Rain = 0
KSYS 192105Z 18010KT 27/05 A2984 RMK A01 T02670045  RH  025%=      5-min Rain = 0
KSYS 192110Z 18010G17KT 27/05 A2984 RMK A01 T02680049  RH  025%=      5-min Rain = 0
KSYS 192115Z 19010G17KT 27/04 A2984 RMK A01 T02680042  RH  024%=      5-min Rain = 0
KSYS 192120Z 17013G18KT 26/05 A2984 RMK A01 T02630045  RH  025%=      5-min Rain = 0
KSYS 192125Z 18011G16KT 26/05 A2984 RMK A01 T02600046  RH  026%=      5-min Rain = 0
KSYS 192130Z 18012KT 26/05 A2984 RMK A01 T02620046  RH  025%=      5-min Rain = 0
KSYS 192135Z 18010G16KT 26/05 A2984 RMK A01 T02620051  RH  026%=      5-min Rain = 0
KSYS 192140Z 17013G18KT 26/05 A2984 RMK A01 T02640050  RH  026%=      5-min Rain = 0
KSYS 192145Z 18011G18KT 26/05 A2984 RMK A01 T02620051  RH  026%=      5-min Rain = 0
KSYS 192150Z 17014G21KT 26/05 A2983 RMK A01 T02610049  RH  026%=      5-min Rain = 0
KSYS 192155Z 17014KT 26/05 A2983 RMK A01 T02610049  RH  026%=      5-min Rain = 0
KSYS 192200Z 17013KT 26/05 A2983 RMK A01 T02610048  RH  026%=      5-min Rain = 0
KSYS 192205Z 17012KT 26/05 A2983 RMK A01 T02610048  RH  026%=      5-min Rain = 0
KSYS 192210Z 17014KT 26/05 A2983 RMK A01 T02610047  RH  026%=      5-min Rain = 0
KSYS 192215Z 17013G18KT 26/05 A2983 RMK A01 T02600046  RH  026%=      5-min Rain = 0
KSYS 192220Z 17013G18KT 26/05 A2983 RMK A01 T02580046  RH  026%=      5-min Rain = 0
KSYS 192225Z 18012G19KT 26/04 A2983 RMK A01 T02570044  RH  026%=      5-min Rain = 0
KSYS 192230Z 17013G18KT 26/05 A2983 RMK A01 T02570046  RH  026%=      5-min Rain = 0
KSYS 192235Z 16013G19KT 26/05 A2983 RMK A01 T02550047  RH  027%=      5-min Rain = 0
KSYS 192240Z 17013G18KT 25/05 A2983 RMK A01 T02520046  RH  027%=      5-min Rain = 0
KSYS 192245Z 17011G16KT 25/05 A2983 RMK A01 T02480047  RH  028%=      5-min Rain = 0
KSYS 192250Z 17010KT 25/05 A2983 RMK A01 T02450047  RH  028%=      5-min Rain = 0
KSYS 192255Z 16010KT 24/05 A2983 RMK A01 T02420049  RH  029%=      5-min Rain = 0
KSYS 192300Z 16010KT 24/05 A2983 RMK A01 T02430051  RH  030%=      5-min Rain = 0
KSYS 192305Z 16010KT 24/05 A2982 RMK A01 T02420052  RH  030%=      5-min Rain = 0
KSYS 192310Z 16010KT 24/05 A2982 RMK A01 T02410053  RH  030%=      5-min Rain = 0
KSYS 192315Z 15010KT 24/05 A2982 RMK A01 T02390053  RH  031%=      5-min Rain = 0
KSYS 192320Z 16009KT 24/05 A2982 RMK A01 T02360051  RH  031%=      5-min Rain = 0
KSYS 192325Z 16009KT 23/05 A2982 RMK A01 T02320047  RH  031%=      5-min Rain = 0
KSYS 192330Z 16009KT 23/04 A2982 RMK A01 T02280043  RH  031%=      5-min Rain = 0
KSYS 192335Z 16008KT 23/04 A2982 RMK A01 T02250043  RH  031%=      5-min Rain = 0
KSYS 192340Z 15008KT 22/04 A2983 RMK A01 T02190043  RH  032%=      5-min Rain = 0
KSYS 192345Z 15009KT 21/04 A2983 RMK A01 T02130042  RH  033%=      5-min Rain = 0
KSYS 192350Z 15009KT 21/04 A2983 RMK A01 T02090044  RH  035%=      5-min Rain = 0
KSYS 192355Z 15009KT 21/05 A2982 RMK A01 T02050048  RH  036%=      5-min Rain = 0
KSYS 200000Z 15009KT 20/05 A2982 RMK A01 T02000050  RH  038%=      5-min Rain = 0
KSYS 200005Z 15009KT 20/05 A2982 RMK A01 T01970053  RH  040%=      5-min Rain = 0
KSYS 200010Z 14009KT 19/06 A2982 RMK A01 T01940055  RH  041%=      5-min Rain = 0
KSYS 200015Z 14010KT 19/06 A2983 RMK A01 T01900056  RH  042%=      5-min Rain = 0
KSYS 200020Z 14010KT 19/06 A2983 RMK A01 T01890058  RH  043%=      5-min Rain = 0
KSYS 200025Z 15010KT 19/06 A2983 RMK A01 T01870058  RH  044%=      5-min Rain = 0
KSYS 200030Z 15010KT 18/06 A2983 RMK A01 T01840059  RH  045%=      5-min Rain = 0
KSYS 200035Z 15009KT 18/06 A2983 RMK A01 T01820060  RH  046%=      5-min Rain = 0
KSYS 200040Z 15009KT 18/06 A2983 RMK A01 T01800060  RH  047%=      5-min Rain = 0
KSYS 200045Z 15009KT 18/06 A2983 RMK A01 T01770061  RH  048%=      5-min Rain = 0
KSYS 200050Z 15010KT 17/06 A2983 RMK A01 T01740062  RH  049%=      5-min Rain = 0
KSYS 200055Z 15010KT 17/06 A2983 RMK A01 T01730062  RH  049%=      5-min Rain = 0
KSYS 200100Z 15011KT 17/06 A2983 RMK A01 T01730063  RH  050%=      5-min Rain = 0
KSYS 200105Z 16011KT 17/06 A2983 RMK A01 T01740064  RH  049%=      5-min Rain = 0
KSYS 200110Z 16011KT 17/06 A2983 RMK A01 T01740064  RH  049%=      5-min Rain = 0
KSYS 200115Z 16012KT 17/06 A2983 RMK A01 T01730064  RH  050%=      5-min Rain = 0
KSYS 200120Z 15011KT 17/06 A2983 RMK A01 T01730064  RH  050%=      5-min Rain = 0
KSYS 200125Z 16011KT 17/06 A2983 RMK A01 T01740064  RH  050%=      5-min Rain = 0
KSYS 200130Z 16011KT 18/07 A2983 RMK A01 T01750065  RH  050%=      5-min Rain = 0
KSYS 200135Z 16011KT 18/07 A2983 RMK A01 T01760065  RH  049%=      5-min Rain = 0
KSYS 200140Z 16011KT 18/07 A2983 RMK A01 T01770066  RH  049%=      5-min Rain = 0
KSYS 200145Z 16011KT 18/07 A2983 RMK A01 T01780066  RH  049%=      5-min Rain = 0
KSYS 200150Z 17012KT 18/07 A2983 RMK A01 T01790067  RH  049%=      5-min Rain = 0
KSYS 200155Z 17012KT 18/07 A2983 RMK A01 T01810068  RH  049%=      5-min Rain = 0
KSYS 200200Z 16012KT 18/07 A2984 RMK A01 T01830068  RH  048%=      5-min Rain = 0
KSYS 200205Z 17012G17KT 19/07 A2984 RMK A01 T01860069  RH  048%=      5-min Rain = 0
KSYS 200210Z 17012G17KT 19/07 A2984 RMK A01 T01860069  RH  048%=      5-min Rain = 0
KSYS 200215Z 17012KT 19/07 A2984 RMK A01 T01860070  RH  048%=      5-min Rain = 0
KSYS 200220Z 17013KT 19/07 A2984 RMK A01 T01850070  RH  048%=      5-min Rain = 0
KSYS 200225Z 17014KT 19/07 A2984 RMK A01 T01850070  RH  048%=      5-min Rain = 0
KSYS 200230Z 17012G17KT 18/07 A2984 RMK A01 T01840071  RH  049%=      5-min Rain = 0
KSYS 200235Z 17013KT 18/07 A2984 RMK A01 T01820072  RH  050%=      5-min Rain = 0
KSYS 200240Z 17013KT 18/07 A2984 RMK A01 T01810072  RH  050%=      5-min Rain = 0
KSYS 200245Z 17013KT 18/07 A2984 RMK A01 T01800073  RH  051%=      5-min Rain = 0
KSYS 200250Z 17012KT 18/07 A2984 RMK A01 T01800074  RH  051%=      5-min Rain = 0
KSYS 200255Z 17011KT 18/07 A2984 RMK A01 T01780074  RH  052%=      5-min Rain = 0
KSYS 200300Z 17012KT 18/08 A2984 RMK A01 T01770075  RH  053%=      5-min Rain = 0
KSYS 200305Z 17012KT 18/08 A2984 RMK A01 T01760075  RH  053%=      5-min Rain = 0
KSYS 200310Z 17011KT 17/08 A2984 RMK A01 T01740076  RH  054%=      5-min Rain = 0
KSYS 200315Z 17011KT 17/08 A2984 RMK A01 T01730076  RH  054%=      5-min Rain = 0
KSYS 200320Z 18011G16KT 17/08 A2984 RMK A01 T01720077  RH  055%=      5-min Rain = 0
KSYS 200325Z 18011G16KT 17/08 A2984 RMK A01 T01740078  RH  055%=      5-min Rain = 0
KSYS 200330Z 18012G17KT 17/08 A2984 RMK A01 T01740079  RH  055%=      5-min Rain = 0
KSYS 200335Z 18013KT 18/08 A2984 RMK A01 T01750079  RH  055%=      5-min Rain = 0
KSYS 200340Z 18013KT 18/08 A2984 RMK A01 T01750080  RH  055%=      5-min Rain = 0
KSYS 200345Z 18013KT 17/08 A2985 RMK A01 T01730080  RH  056%=      5-min Rain = 0
KSYS 200350Z 18013KT 17/08 A2985 RMK A01 T01720081  RH  056%=      5-min Rain = 0
KSYS 200355Z 17013KT 17/08 A2985 RMK A01 T01710081  RH  057%=      5-min Rain = 0
KSYS 200400Z 17013KT 17/08 A2985 RMK A01 T01690081  RH  057%=      5-min Rain = 0
KSYS 200405Z 17012KT 17/08 A2985 RMK A01 T01660081  RH  058%=      5-min Rain = 0
KSYS 200410Z 17012KT 16/08 A2985 RMK A01 T01630081  RH  060%=      5-min Rain = 0
KSYS 200415Z 17012KT 16/08 A2985 RMK A01 T01610081  RH  061%=      5-min Rain = 0
KSYS 200420Z 17011KT 16/08 A2985 RMK A01 T01590081  RH  062%=      5-min Rain = 0
KSYS 200425Z 18011KT 16/08 A2985 RMK A01 T01570081  RH  062%=      5-min Rain = 0
KSYS 200430Z 17011KT 16/08 A2985 RMK A01 T01560081  RH  063%=      5-min Rain = 0
KSYS 200435Z 17011KT 15/08 A2985 RMK A01 T01540081  RH  064%=      5-min Rain = 0
KSYS 200440Z 17011KT 15/08 A2985 RMK A01 T01530082  RH  064%=      5-min Rain = 0
KSYS 200445Z 17010KT 15/08 A2985 RMK A01 T01520082  RH  065%=      5-min Rain = 0
KSYS 200450Z 16011KT 15/08 A2985 RMK A01 T01520083  RH  065%=      5-min Rain = 0
KSYS 200455Z 17010KT 15/08 A2985 RMK A01 T01530084  RH  065%=      5-min Rain = 0
KSYS 200500Z 17010KT 15/08 A2985 RMK A01 T01520084  RH  066%=      5-min Rain = 0
KSYS 200505Z 17010KT 15/08 A2984 RMK A01 T01510084  RH  066%=      5-min Rain = 0
KSYS 200510Z 17010KT 15/09 A2985 RMK A01 T01500085  RH  067%=      5-min Rain = 0
KSYS 200515Z 17010KT 15/09 A2985 RMK A01 T01490085  RH  068%=      5-min Rain = 0
KSYS 200520Z 16010KT 15/09 A2985 RMK A01 T01490085  RH  068%=      5-min Rain = 0
KSYS 200525Z 17009KT 15/09 A2985 RMK A01 T01490085  RH  068%=      5-min Rain = 0
KSYS 200530Z 18009KT 15/09 A2986 RMK A01 T01480085  RH  068%=      5-min Rain = 0
KSYS 200535Z 17009KT 15/09 A2986 RMK A01 T01470085  RH  069%=      5-min Rain = 0
KSYS 200540Z 18008KT 15/09 A2985 RMK A01 T01460086  RH  069%=      5-min Rain = 0
KSYS 200545Z 17008KT 15/09 A2985 RMK A01 T01450086  RH  070%=      5-min Rain = 0
KSYS 200550Z 18009KT 15/09 A2985 RMK A01 T01450087  RH  070%=      5-min Rain = 0
KSYS 200555Z 18010KT 15/09 A2985 RMK A01 T01450087  RH  070%=      5-min Rain = 0

Page generated in 0.0094 seconds.